Terminal Aerodrome Forecast
Issued by NWS

Home | Current Version | Previous Version | Text Only | Print | Product List | Glossary On
Versions: 1 2 3 4 5 6 7 8 9 10 11 12
000
FTUS46 KLOX 160500 RRA
TAFBUR
TAF
KBUR 160541Z 1606/1706 VRB03KT P6SM SKC
     FM162000 17008KT P6SM SKC
     FM170000 29008KT P6SM SKC
     FM170400 VRB03KT P6SM SKC=

USA.gov is the U.S. government's official web portal to all federal, state and local government web resources and services.